sensor_id;sensor_type;location;lat;lon;timestamp;P1;durP1;ratioP1;P2;durP2;ratioP2
20334;SDS011;10325;51.468;5.804;2023-04-03T00:02:06;1.70;;;1.40;;
20334;SDS011;10325;51.468;5.804;2023-04-03T00:04:38;1.83;;;1.27;;
20334;SDS011;10325;51.468;5.804;2023-04-03T00:07:08;1.47;;;1.10;;
20334;SDS011;10325;51.468;5.804;2023-04-03T00:09:37;1.33;;;1.23;;
20334;SDS011;10325;51.468;5.804;2023-04-03T00:12:08;1.30;;;1.20;;
20334;SDS011;10325;51.468;5.804;2023-04-03T00:14:37;1.07;;;0.80;;
20334;SDS011;10325;51.468;5.804;2023-04-03T00:17:08;2.07;;;1.13;;
20334;SDS011;10325;51.468;5.804;2023-04-03T00:19:36;0.83;;;0.80;;
20334;SDS011;10325;51.468;5.804;2023-04-03T00:22:07;1.30;;;1.10;;
20334;SDS011;10325;51.468;5.804;2023-04-03T00:24:35;3.43;;;1.20;;
20334;SDS011;10325;51.468;5.804;2023-04-03T00:27:04;1.20;;;1.10;;
20334;SDS011;10325;51.468;5.804;2023-04-03T00:29:36;1.57;;;1.00;;
20334;SDS011;10325;51.468;5.804;2023-04-03T00:32:04;1.30;;;1.20;;
20334;SDS011;10325;51.468;5.804;2023-04-03T00:34:39;1.03;;;0.97;;
20334;SDS011;10325;51.468;5.804;2023-04-03T00:37:10;1.43;;;1.00;;
20334;SDS011;10325;51.468;5.804;2023-04-03T00:39:40;1.20;;;1.10;;
20334;SDS011;10325;51.468;5.804;2023-04-03T00:42:12;1.47;;;1.30;;
20334;SDS011;10325;51.468;5.804;2023-04-03T00:47:16;1.80;;;1.13;;
20334;SDS011;10325;51.468;5.804;2023-04-03T00:49:48;1.30;;;1.07;;
20334;SDS011;10325;51.468;5.804;2023-04-03T00:52:21;1.67;;;1.00;;
20334;SDS011;10325;51.468;5.804;2023-04-03T00:54:57;1.73;;;1.23;;
20334;SDS011;10325;51.468;5.804;2023-04-03T00:57:38;1.30;;;1.10;;
20334;SDS011;10325;51.468;5.804;2023-04-03T01:00:08;1.17;;;0.97;;
20334;SDS011;10325;51.468;5.804;2023-04-03T01:02:44;1.20;;;1.10;;
20334;SDS011;10325;51.468;5.804;2023-04-03T01:05:18;1.17;;;0.83;;
20334;SDS011;10325;51.468;5.804;2023-04-03T01:07:50;2.00;;;1.30;;
20334;SDS011;10325;51.468;5.804;2023-04-03T01:10:19;1.43;;;1.13;;
20334;SDS011;10325;51.468;5.804;2023-04-03T01:13:00;1.17;;;1.07;;
20334;SDS011;10325;51.468;5.804;2023-04-03T01:15:31;1.17;;;0.90;;
20334;SDS011;10325;51.468;5.804;2023-04-03T01:18:14;1.40;;;1.10;;
20334;SDS011;10325;51.468;5.804;2023-04-03T01:21:04;1.10;;;1.00;;
20334;SDS011;10325;51.468;5.804;2023-04-03T01:26:46;1.37;;;1.20;;
20334;SDS011;10325;51.468;5.804;2023-04-03T01:29:16;1.50;;;1.00;;
20334;SDS011;10325;51.468;5.804;2023-04-03T01:31:51;1.00;;;0.90;;
20334;SDS011;10325;51.468;5.804;2023-04-03T01:34:35;1.30;;;0.83;;
20334;SDS011;10325;51.468;5.804;2023-04-03T01:37:08;1.50;;;0.93;;
20334;SDS011;10325;51.468;5.804;2023-04-03T01:39:36;1.20;;;1.10;;
20334;SDS011;10325;51.468;5.804;2023-04-03T01:42:09;1.63;;;1.40;;
20334;SDS011;10325;51.468;5.804;2023-04-03T01:44:40;1.00;;;0.90;;
20334;SDS011;10325;51.468;5.804;2023-04-03T01:47:12;1.30;;;1.10;;
20334;SDS011;10325;51.468;5.804;2023-04-03T01:49:40;1.70;;;1.20;;
20334;SDS011;10325;51.468;5.804;2023-04-03T01:52:11;2.40;;;1.00;;
20334;SDS011;10325;51.468;5.804;2023-04-03T01:54:43;0.90;;;0.77;;
20334;SDS011;10325;51.468;5.804;2023-04-03T01:57:13;1.10;;;1.00;;
20334;SDS011;10325;51.468;5.804;2023-04-03T01:59:41;1.30;;;1.00;;
20334;SDS011;10325;51.468;5.804;2023-04-03T02:02:08;1.30;;;1.00;;
20334;SDS011;10325;51.468;5.804;2023-04-03T02:04:40;1.00;;;0.90;;
20334;SDS011;10325;51.468;5.804;2023-04-03T02:07:07;1.33;;;0.90;;
20334;SDS011;10325;51.468;5.804;2023-04-03T02:09:47;1.10;;;0.90;;
20334;SDS011;10325;51.468;5.804;2023-04-03T02:12:16;1.27;;;0.90;;
20334;SDS011;10325;51.468;5.804;2023-04-03T02:14:44;1.00;;;0.90;;
20334;SDS011;10325;51.468;5.804;2023-04-03T02:17:14;1.10;;;0.90;;
20334;SDS011;10325;51.468;5.804;2023-04-03T02:19:43;1.63;;;1.10;;
20334;SDS011;10325;51.468;5.804;2023-04-03T02:22:23;1.20;;;1.07;;
20334;SDS011;10325;51.468;5.804;2023-04-03T02:24:53;1.03;;;0.93;;
20334;SDS011;10325;51.468;5.804;2023-04-03T02:27:23;1.90;;;1.10;;
20334;SDS011;10325;51.468;5.804;2023-04-03T02:29:54;2.90;;;1.00;;
20334;SDS011;10325;51.468;5.804;2023-04-03T02:32:23;1.00;;;0.90;;
20334;SDS011;10325;51.468;5.804;2023-04-03T02:34:51;1.20;;;1.00;;
20334;SDS011;10325;51.468;5.804;2023-04-03T02:37:20;0.80;;;0.80;;
20334;SDS011;10325;51.468;5.804;2023-04-03T02:39:49;1.57;;;1.10;;
20334;SDS011;10325;51.468;5.804;2023-04-03T02:42:20;1.40;;;0.90;;
20334;SDS011;10325;51.468;5.804;2023-04-03T02:44:55;1.40;;;1.07;;
20334;SDS011;10325;51.468;5.804;2023-04-03T02:47:27;1.70;;;1.17;;
20334;SDS011;10325;51.468;5.804;2023-04-03T02:49:58;1.70;;;1.20;;
20334;SDS011;10325;51.468;5.804;2023-04-03T02:52:30;1.07;;;0.90;;
20334;SDS011;10325;51.468;5.804;2023-04-03T02:54:58;1.10;;;1.00;;
20334;SDS011;10325;51.468;5.804;2023-04-03T02:57:30;1.37;;;0.90;;
20334;SDS011;10325;51.468;5.804;2023-04-03T02:59:59;1.33;;;1.17;;
20334;SDS011;10325;51.468;5.804;2023-04-03T03:02:29;2.00;;;1.03;;
20334;SDS011;10325;51.468;5.804;2023-04-03T03:05:01;1.33;;;1.13;;
20334;SDS011;10325;51.468;5.804;2023-04-03T03:07:28;1.80;;;1.20;;
20334;SDS011;10325;51.468;5.804;2023-04-03T03:10:05;1.50;;;1.23;;
20334;SDS011;10325;51.468;5.804;2023-04-03T03:12:33;0.73;;;0.73;;
20334;SDS011;10325;51.468;5.804;2023-04-03T03:15:05;1.20;;;1.10;;
20334;SDS011;10325;51.468;5.804;2023-04-03T03:17:37;1.13;;;0.90;;
20334;SDS011;10325;51.468;5.804;2023-04-03T03:20:08;1.30;;;0.80;;
20334;SDS011;10325;51.468;5.804;2023-04-03T03:22:37;1.57;;;1.00;;
20334;SDS011;10325;51.468;5.804;2023-04-03T03:25:09;1.43;;;1.00;;
20334;SDS011;10325;51.468;5.804;2023-04-03T03:27:37;1.50;;;1.10;;
20334;SDS011;10325;51.468;5.804;2023-04-03T03:30:09;0.93;;;0.90;;
20334;SDS011;10325;51.468;5.804;2023-04-03T03:32:37;2.17;;;1.00;;
20334;SDS011;10325;51.468;5.804;2023-04-03T03:35:07;1.37;;;1.00;;
20334;SDS011;10325;51.468;5.804;2023-04-03T03:37:38;1.73;;;1.00;;
20334;SDS011;10325;51.468;5.804;2023-04-03T03:40:06;1.53;;;1.10;;
20334;SDS011;10325;51.468;5.804;2023-04-03T03:42:48;1.10;;;0.97;;
20334;SDS011;10325;51.468;5.804;2023-04-03T03:45:20;1.57;;;0.90;;
20334;SDS011;10325;51.468;5.804;2023-04-03T03:47:48;1.07;;;0.93;;
20334;SDS011;10325;51.468;5.804;2023-04-03T03:50:16;1.30;;;1.00;;
20334;SDS011;10325;51.468;5.804;2023-04-03T03:52:45;1.10;;;1.00;;
20334;SDS011;10325;51.468;5.804;2023-04-03T03:55:14;3.47;;;0.90;;
20334;SDS011;10325;51.468;5.804;2023-04-03T03:57:46;1.20;;;1.10;;
20334;SDS011;10325;51.468;5.804;2023-04-03T04:00:17;1.10;;;1.00;;
20334;SDS011;10325;51.468;5.804;2023-04-03T04:02:46;1.10;;;1.00;;
20334;SDS011;10325;51.468;5.804;2023-04-03T04:05:17;1.17;;;0.83;;
20334;SDS011;10325;51.468;5.804;2023-04-03T04:07:50;1.40;;;1.00;;
20334;SDS011;10325;51.468;5.804;2023-04-03T04:10:22;1.33;;;0.97;;
20334;SDS011;10325;51.468;5.804;2023-04-03T04:12:51;3.53;;;1.20;;
20334;SDS011;10325;51.468;5.804;2023-04-03T04:15:24;1.43;;;1.10;;
20334;SDS011;10325;51.468;5.804;2023-04-03T04:18:05;1.00;;;0.80;;
20334;SDS011;10325;51.468;5.804;2023-04-03T04:20:32;1.33;;;1.00;;
20334;SDS011;10325;51.468;5.804;2023-04-03T04:23:02;1.00;;;0.87;;
20334;SDS011;10325;51.468;5.804;2023-04-03T04:25:34;1.00;;;0.90;;
20334;SDS011;10325;51.468;5.804;2023-04-03T04:28:05;3.43;;;1.27;;
20334;SDS011;10325;51.468;5.804;2023-04-03T04:30:34;2.23;;;1.03;;
20334;SDS011;10325;51.468;5.804;2023-04-03T04:33:05;1.17;;;1.03;;
20334;SDS011;10325;51.468;5.804;2023-04-03T04:35:36;1.20;;;1.10;;
20334;SDS011;10325;51.468;5.804;2023-04-03T04:38:06;1.47;;;0.90;;
20334;SDS011;10325;51.468;5.804;2023-04-03T04:40:38;1.00;;;0.90;;
20334;SDS011;10325;51.468;5.804;2023-04-03T04:43:11;1.43;;;0.83;;
20334;SDS011;10325;51.468;5.804;2023-04-03T04:46:03;1.33;;;1.23;;
20334;SDS011;10325;51.468;5.804;2023-04-03T04:48:52;0.80;;;0.60;;
20334;SDS011;10325;51.468;5.804;2023-04-03T04:51:22;1.60;;;0.97;;
20334;SDS011;10325;51.468;5.804;2023-04-03T04:53:50;2.73;;;0.90;;
20334;SDS011;10325;51.468;5.804;2023-04-03T04:56:22;0.70;;;0.60;;
20334;SDS011;10325;51.468;5.804;2023-04-03T04:58:53;1.23;;;0.80;;
20334;SDS011;10325;51.468;5.804;2023-04-03T05:01:24;1.97;;;1.00;;
20334;SDS011;10325;51.468;5.804;2023-04-03T05:03:55;1.23;;;0.80;;
20334;SDS011;10325;51.468;5.804;2023-04-03T05:06:26;1.17;;;0.80;;
20334;SDS011;10325;51.468;5.804;2023-04-03T05:09:18;1.43;;;1.00;;
20334;SDS011;10325;51.468;5.804;2023-04-03T05:12:00;1.60;;;1.00;;
20334;SDS011;10325;51.468;5.804;2023-04-03T05:14:31;1.40;;;1.13;;
20334;SDS011;10325;51.468;5.804;2023-04-03T05:17:04;1.67;;;1.00;;
20334;SDS011;10325;51.468;5.804;2023-04-03T05:19:33;1.60;;;1.00;;
20334;SDS011;10325;51.468;5.804;2023-04-03T05:22:16;1.17;;;0.90;;
20334;SDS011;10325;51.468;5.804;2023-04-03T05:24:51;1.40;;;0.87;;
20334;SDS011;10325;51.468;5.804;2023-04-03T05:27:23;1.40;;;1.00;;
20334;SDS011;10325;51.468;5.804;2023-04-03T05:29:55;2.10;;;0.93;;
20334;SDS011;10325;51.468;5.804;2023-04-03T05:32:29;0.80;;;0.80;;
20334;SDS011;10325;51.468;5.804;2023-04-03T05:34:58;2.37;;;1.00;;
20334;SDS011;10325;51.468;5.804;2023-04-03T05:37:30;1.10;;;1.00;;
20334;SDS011;10325;51.468;5.804;2023-04-03T05:40:02;1.67;;;0.90;;
20334;SDS011;10325;51.468;5.804;2023-04-03T05:42:35;2.83;;;1.23;;
20334;SDS011;10325;51.468;5.804;2023-04-03T05:45:08;1.77;;;1.17;;
20334;SDS011;10325;51.468;5.804;2023-04-03T05:47:38;0.93;;;0.80;;
20334;SDS011;10325;51.468;5.804;2023-04-03T05:50:09;1.60;;;0.80;;
20334;SDS011;10325;51.468;5.804;2023-04-03T05:52:40;2.47;;;1.00;;
20334;SDS011;10325;51.468;5.804;2023-04-03T05:55:21;2.77;;;0.70;;
20334;SDS011;10325;51.468;5.804;2023-04-03T05:57:50;0.97;;;0.70;;
20334;SDS011;10325;51.468;5.804;2023-04-03T06:00:20;1.03;;;0.80;;
20334;SDS011;10325;51.468;5.804;2023-04-03T06:02:50;1.00;;;0.67;;
20334;SDS011;10325;51.468;5.804;2023-04-03T06:05:19;1.00;;;0.70;;
20334;SDS011;10325;51.468;5.804;2023-04-03T06:08:00;2.60;;;0.80;;
20334;SDS011;10325;51.468;5.804;2023-04-03T06:10:32;1.47;;;0.90;;
20334;SDS011;10325;51.468;5.804;2023-04-03T06:13:01;1.23;;;0.73;;
20334;SDS011;10325;51.468;5.804;2023-04-03T06:15:32;2.43;;;0.90;;
20334;SDS011;10325;51.468;5.804;2023-04-03T06:18:03;0.90;;;0.70;;
20334;SDS011;10325;51.468;5.804;2023-04-03T06:20:49;1.37;;;0.70;;
20334;SDS011;10325;51.468;5.804;2023-04-03T06:23:21;0.80;;;0.70;;
20334;SDS011;10325;51.468;5.804;2023-04-03T06:25:53;1.20;;;0.73;;
20334;SDS011;10325;51.468;5.804;2023-04-03T06:28:24;1.60;;;0.77;;
20334;SDS011;10325;51.468;5.804;2023-04-03T06:30:54;1.47;;;0.87;;
20334;SDS011;10325;51.468;5.804;2023-04-03T06:33:34;2.30;;;0.80;;
20334;SDS011;10325;51.468;5.804;2023-04-03T06:36:06;4.37;;;1.00;;
20334;SDS011;10325;51.468;5.804;2023-04-03T06:38:47;1.50;;;1.00;;
20334;SDS011;10325;51.468;5.804;2023-04-03T06:41:31;7.03;;;1.57;;
20334;SDS011;10325;51.468;5.804;2023-04-03T06:44:04;17.40;;;4.30;;
20334;SDS011;10325;51.468;5.804;2023-04-03T06:46:45;14.30;;;4.37;;
20334;SDS011;10325;51.468;5.804;2023-04-03T06:49:18;11.80;;;3.70;;
20334;SDS011;10325;51.468;5.804;2023-04-03T06:51:48;15.53;;;3.53;;
20334;SDS011;10325;51.468;5.804;2023-04-03T06:54:20;16.10;;;4.00;;
20334;SDS011;10325;51.468;5.804;2023-04-03T06:56:50;9.33;;;3.23;;
20334;SDS011;10325;51.468;5.804;2023-04-03T06:59:22;10.33;;;3.47;;
20334;SDS011;10325;51.468;5.804;2023-04-03T07:01:54;15.13;;;3.17;;
20334;SDS011;10325;51.468;5.804;2023-04-03T07:04:24;6.70;;;2.60;;
20334;SDS011;10325;51.468;5.804;2023-04-03T07:06:56;8.03;;;3.07;;
20334;SDS011;10325;51.468;5.804;2023-04-03T07:09:27;5.97;;;2.37;;
20334;SDS011;10325;51.468;5.804;2023-04-03T07:11:59;8.17;;;2.70;;
20334;SDS011;10325;51.468;5.804;2023-04-03T07:14:29;10.27;;;2.57;;
20334;SDS011;10325;51.468;5.804;2023-04-03T07:17:00;6.13;;;2.30;;
20334;SDS011;10325;51.468;5.804;2023-04-03T07:19:31;6.77;;;2.23;;
20334;SDS011;10325;51.468;5.804;2023-04-03T07:21:59;4.63;;;1.70;;
20334;SDS011;10325;51.468;5.804;2023-04-03T07:24:32;4.83;;;2.13;;
20334;SDS011;10325;51.468;5.804;2023-04-03T07:27:01;6.57;;;2.40;;
20334;SDS011;10325;51.468;5.804;2023-04-03T07:29:33;5.87;;;1.80;;
20334;SDS011;10325;51.468;5.804;2023-04-03T07:32:07;6.00;;;2.30;;
20334;SDS011;10325;51.468;5.804;2023-04-03T07:34:44;5.17;;;1.87;;
20334;SDS011;10325;51.468;5.804;2023-04-03T07:37:14;5.37;;;1.73;;
20334;SDS011;10325;51.468;5.804;2023-04-03T07:39:47;4.83;;;1.83;;
20334;SDS011;10325;51.468;5.804;2023-04-03T07:42:20;2.37;;;1.37;;
20334;SDS011;10325;51.468;5.804;2023-04-03T07:44:50;7.80;;;1.80;;
20334;SDS011;10325;51.468;5.804;2023-04-03T07:47:24;3.97;;;2.00;;
20334;SDS011;10325;51.468;5.804;2023-04-03T07:49:54;4.47;;;1.60;;
20334;SDS011;10325;51.468;5.804;2023-04-03T07:52:24;3.30;;;1.33;;
20334;SDS011;10325;51.468;5.804;2023-04-03T07:54:53;3.57;;;1.23;;
20334;SDS011;10325;51.468;5.804;2023-04-03T07:57:25;4.50;;;1.50;;
20334;SDS011;10325;51.468;5.804;2023-04-03T07:59:57;2.17;;;1.50;;
20334;SDS011;10325;51.468;5.804;2023-04-03T08:02:26;4.67;;;1.63;;
20334;SDS011;10325;51.468;5.804;2023-04-03T08:04:59;3.33;;;1.60;;
20334;SDS011;10325;51.468;5.804;2023-04-03T08:07:30;4.67;;;1.50;;
20334;SDS011;10325;51.468;5.804;2023-04-03T08:10:01;6.50;;;1.50;;
20334;SDS011;10325;51.468;5.804;2023-04-03T08:12:32;4.50;;;1.57;;
20334;SDS011;10325;51.468;5.804;2023-04-03T08:15:01;2.67;;;1.33;;
20334;SDS011;10325;51.468;5.804;2023-04-03T08:17:31;2.43;;;1.23;;
20334;SDS011;10325;51.468;5.804;2023-04-03T08:20:00;3.60;;;1.60;;
20334;SDS011;10325;51.468;5.804;2023-04-03T08:22:40;2.63;;;1.40;;
20334;SDS011;10325;51.468;5.804;2023-04-03T08:25:13;4.37;;;1.60;;
20334;SDS011;10325;51.468;5.804;2023-04-03T08:27:45;2.03;;;1.40;;
20334;SDS011;10325;51.468;5.804;2023-04-03T08:30:15;2.00;;;1.00;;
20334;SDS011;10325;51.468;5.804;2023-04-03T08:32:46;3.23;;;1.40;;
20334;SDS011;10325;51.468;5.804;2023-04-03T08:35:17;4.10;;;1.50;;
20334;SDS011;10325;51.468;5.804;2023-04-03T08:37:48;1.73;;;1.10;;
20334;SDS011;10325;51.468;5.804;2023-04-03T08:40:22;1.93;;;1.00;;
20334;SDS011;10325;51.468;5.804;2023-04-03T08:43:00;3.37;;;1.20;;
20334;SDS011;10325;51.468;5.804;2023-04-03T08:45:53;2.97;;;1.10;;
20334;SDS011;10325;51.468;5.804;2023-04-03T08:48:33;2.67;;;1.40;;
20334;SDS011;10325;51.468;5.804;2023-04-03T08:51:16;2.87;;;1.10;;
20334;SDS011;10325;51.468;5.804;2023-04-03T08:54:03;2.97;;;1.13;;
20334;SDS011;10325;51.468;5.804;2023-04-03T08:56:45;3.13;;;1.20;;
20334;SDS011;10325;51.468;5.804;2023-04-03T08:59:25;1.80;;;0.90;;
20334;SDS011;10325;51.468;5.804;2023-04-03T09:02:31;2.00;;;1.00;;
20334;SDS011;10325;51.468;5.804;2023-04-03T09:05:18;1.97;;;0.87;;
20334;SDS011;10325;51.468;5.804;2023-04-03T09:10:34;1.40;;;1.10;;
20334;SDS011;10325;51.468;5.804;2023-04-03T09:13:27;1.50;;;0.90;;
20334;SDS011;10325;51.468;5.804;2023-04-03T09:22:25;1.27;;;0.83;;
20334;SDS011;10325;51.468;5.804;2023-04-03T09:25:31;1.87;;;1.20;;
20334;SDS011;10325;51.468;5.804;2023-04-03T09:28:00;1.33;;;0.80;;
20334;SDS011;10325;51.468;5.804;2023-04-03T09:30:38;1.23;;;0.90;;
20334;SDS011;10325;51.468;5.804;2023-04-03T09:33:09;1.93;;;0.90;;
20334;SDS011;10325;51.468;5.804;2023-04-03T09:35:40;2.03;;;0.87;;
20334;SDS011;10325;51.468;5.804;2023-04-03T09:38:16;1.70;;;0.90;;
20334;SDS011;10325;51.468;5.804;2023-04-03T09:43:36;1.60;;;0.77;;
20334;SDS011;10325;51.468;5.804;2023-04-03T09:49:01;3.00;;;1.10;;
20334;SDS011;10325;51.468;5.804;2023-04-03T09:51:40;1.77;;;0.67;;
20334;SDS011;10325;51.468;5.804;2023-04-03T09:54:24;2.40;;;1.10;;
20334;SDS011;10325;51.468;5.804;2023-04-03T09:57:15;1.80;;;0.87;;
20334;SDS011;10325;51.468;5.804;2023-04-03T09:59:58;0.67;;;0.60;;
20334;SDS011;10325;51.468;5.804;2023-04-03T10:06:21;1.40;;;0.70;;
20334;SDS011;10325;51.468;5.804;2023-04-03T10:10:45;0.90;;;0.57;;
20334;SDS011;10325;51.468;5.804;2023-04-03T10:13:53;1.23;;;0.77;;
20334;SDS011;10325;51.468;5.804;2023-04-03T10:16:56;0.87;;;0.63;;
20334;SDS011;10325;51.468;5.804;2023-04-03T10:19:34;1.43;;;0.70;;
20334;SDS011;10325;51.468;5.804;2023-04-03T10:28:45;1.90;;;0.80;;
20334;SDS011;10325;51.468;5.804;2023-04-03T10:31:25;1.70;;;0.90;;
20334;SDS011;10325;51.468;5.804;2023-04-03T10:37:35;1.20;;;0.60;;
20334;SDS011;10325;51.468;5.804;2023-04-03T10:40:34;0.90;;;0.90;;
20334;SDS011;10325;51.468;5.804;2023-04-03T10:43:36;1.07;;;0.90;;
20334;SDS011;10325;51.468;5.804;2023-04-03T10:49:30;1.23;;;0.50;;
20334;SDS011;10325;51.468;5.804;2023-04-03T10:55:41;1.90;;;0.77;;
20334;SDS011;10325;51.468;5.804;2023-04-03T10:58:35;1.00;;;0.50;;
20334;SDS011;10325;51.468;5.804;2023-04-03T11:01:15;0.73;;;0.73;;
20334;SDS011;10325;51.468;5.804;2023-04-03T11:03:57;0.77;;;0.50;;
20334;SDS011;10325;51.468;5.804;2023-04-03T11:06:31;0.80;;;0.60;;
20334;SDS011;10325;51.468;5.804;2023-04-03T11:15:06;0.47;;;0.40;;
20334;SDS011;10325;51.468;5.804;2023-04-03T11:18:49;0.73;;;0.50;;
20334;SDS011;10325;51.468;5.804;2023-04-03T11:21:12;1.00;;;0.43;;
20334;SDS011;10325;51.468;5.804;2023-04-03T11:23:42;1.33;;;0.53;;
20334;SDS011;10325;51.468;5.804;2023-04-03T11:26:18;0.73;;;0.40;;
20334;SDS011;10325;51.468;5.804;2023-04-03T11:29:01;1.23;;;0.70;;
20334;SDS011;10325;51.468;5.804;2023-04-03T11:32:08;0.63;;;0.50;;
20334;SDS011;10325;51.468;5.804;2023-04-03T11:34:56;1.27;;;0.60;;
20334;SDS011;10325;51.468;5.804;2023-04-03T11:37:39;1.03;;;0.50;;
20334;SDS011;10325;51.468;5.804;2023-04-03T11:40:25;1.00;;;0.50;;
20334;SDS011;10325;51.468;5.804;2023-04-03T11:46:02;0.73;;;0.50;;
20334;SDS011;10325;51.468;5.804;2023-04-03T11:48:43;1.00;;;0.53;;
20334;SDS011;10325;51.468;5.804;2023-04-03T11:53:48;1.40;;;0.60;;
20334;SDS011;10325;51.468;5.804;2023-04-03T11:59:15;0.30;;;0.30;;
20334;SDS011;10325;51.468;5.804;2023-04-03T12:01:50;1.53;;;0.40;;
20334;SDS011;10325;51.468;5.804;2023-04-03T12:04:26;0.70;;;0.63;;
20334;SDS011;10325;51.468;5.804;2023-04-03T12:07:16;1.10;;;0.43;;
20334;SDS011;10325;51.468;5.804;2023-04-03T12:09:54;1.00;;;0.50;;
20334;SDS011;10325;51.468;5.804;2023-04-03T12:12:41;1.00;;;0.53;;
20334;SDS011;10325;51.468;5.804;2023-04-03T12:21:18;0.40;;;0.40;;
20334;SDS011;10325;51.468;5.804;2023-04-03T12:29:51;0.70;;;0.40;;
20334;SDS011;10325;51.468;5.804;2023-04-03T12:35:29;2.17;;;0.60;;
20334;SDS011;10325;51.468;5.804;2023-04-03T12:38:41;0.50;;;0.43;;
20334;SDS011;10325;51.468;5.804;2023-04-03T12:41:51;0.83;;;0.63;;
20334;SDS011;10325;51.468;5.804;2023-04-03T12:44:53;2.10;;;0.50;;
20334;SDS011;10325;51.468;5.804;2023-04-03T12:47:45;1.40;;;0.40;;
20334;SDS011;10325;51.468;5.804;2023-04-03T12:50:57;0.60;;;0.50;;
20334;SDS011;10325;51.468;5.804;2023-04-03T12:53:34;1.70;;;0.67;;
20334;SDS011;10325;51.468;5.804;2023-04-03T12:56:24;0.67;;;0.53;;
20334;SDS011;10325;51.468;5.804;2023-04-03T12:59:21;0.97;;;0.40;;
20334;SDS011;10325;51.468;5.804;2023-04-03T13:01:55;0.97;;;0.50;;
20334;SDS011;10325;51.468;5.804;2023-04-03T13:04:40;1.53;;;0.57;;
20334;SDS011;10325;51.468;5.804;2023-04-03T13:07:22;1.13;;;0.47;;
20334;SDS011;10325;51.468;5.804;2023-04-03T13:12:52;1.03;;;0.40;;
20334;SDS011;10325;51.468;5.804;2023-04-03T13:15:26;2.43;;;0.50;;
20334;SDS011;10325;51.468;5.804;2023-04-03T13:18:27;0.63;;;0.30;;
20334;SDS011;10325;51.468;5.804;2023-04-03T13:21:06;0.80;;;0.53;;
20334;SDS011;10325;51.468;5.804;2023-04-03T13:23:48;0.93;;;0.47;;
20334;SDS011;10325;51.468;5.804;2023-04-03T13:26:38;0.80;;;0.40;;
20334;SDS011;10325;51.468;5.804;2023-04-03T13:29:19;0.97;;;0.53;;
20334;SDS011;10325;51.468;5.804;2023-04-03T13:31:59;0.83;;;0.60;;
20334;SDS011;10325;51.468;5.804;2023-04-03T13:34:42;2.40;;;0.53;;
20334;SDS011;10325;51.468;5.804;2023-04-03T13:37:27;1.03;;;0.50;;
20334;SDS011;10325;51.468;5.804;2023-04-03T13:40:11;0.80;;;0.40;;
20334;SDS011;10325;51.468;5.804;2023-04-03T13:42:44;1.03;;;0.60;;
20334;SDS011;10325;51.468;5.804;2023-04-03T13:45:30;1.37;;;0.60;;
20334;SDS011;10325;51.468;5.804;2023-04-03T13:48:16;0.47;;;0.37;;
20334;SDS011;10325;51.468;5.804;2023-04-03T13:51:01;0.83;;;0.50;;
20334;SDS011;10325;51.468;5.804;2023-04-03T13:53:41;0.63;;;0.50;;
20334;SDS011;10325;51.468;5.804;2023-04-03T13:56:33;1.10;;;0.50;;
20334;SDS011;10325;51.468;5.804;2023-04-03T13:59:21;0.87;;;0.80;;
20334;SDS011;10325;51.468;5.804;2023-04-03T14:04:52;0.97;;;0.40;;
20334;SDS011;10325;51.468;5.804;2023-04-03T14:07:27;1.20;;;0.70;;
20334;SDS011;10325;51.468;5.804;2023-04-03T14:09:59;0.50;;;0.40;;
20334;SDS011;10325;51.468;5.804;2023-04-03T14:12:35;1.57;;;0.67;;
20334;SDS011;10325;51.468;5.804;2023-04-03T14:15:22;1.17;;;0.50;;
20334;SDS011;10325;51.468;5.804;2023-04-03T14:17:58;2.07;;;0.50;;
20334;SDS011;10325;51.468;5.804;2023-04-03T14:20:36;1.20;;;0.60;;
20334;SDS011;10325;51.468;5.804;2023-04-03T14:23:07;0.43;;;0.37;;
20334;SDS011;10325;51.468;5.804;2023-04-03T14:25:40;0.60;;;0.50;;
20334;SDS011;10325;51.468;5.804;2023-04-03T14:28:15;0.40;;;0.30;;
20334;SDS011;10325;51.468;5.804;2023-04-03T14:30:48;1.57;;;0.70;;
20334;SDS011;10325;51.468;5.804;2023-04-03T14:33:21;1.27;;;0.40;;
20334;SDS011;10325;51.468;5.804;2023-04-03T14:35:50;1.10;;;0.67;;
20334;SDS011;10325;51.468;5.804;2023-04-03T14:38:27;1.17;;;0.70;;
20334;SDS011;10325;51.468;5.804;2023-04-03T14:40:59;1.30;;;0.50;;
20334;SDS011;10325;51.468;5.804;2023-04-03T14:43:42;1.80;;;0.80;;
20334;SDS011;10325;51.468;5.804;2023-04-03T14:46:19;0.80;;;0.50;;
20334;SDS011;10325;51.468;5.804;2023-04-03T14:49:22;0.60;;;0.50;;
20334;SDS011;10325;51.468;5.804;2023-04-03T14:51:57;1.27;;;0.60;;
20334;SDS011;10325;51.468;5.804;2023-04-03T14:54:27;1.27;;;0.60;;
20334;SDS011;10325;51.468;5.804;2023-04-03T14:56:58;1.10;;;0.60;;
20334;SDS011;10325;51.468;5.804;2023-04-03T14:59:28;1.90;;;0.70;;
20334;SDS011;10325;51.468;5.804;2023-04-03T15:01:58;1.10;;;0.50;;
20334;SDS011;10325;51.468;5.804;2023-04-03T15:04:29;1.27;;;0.73;;
20334;SDS011;10325;51.468;5.804;2023-04-03T15:06:59;1.47;;;0.43;;
20334;SDS011;10325;51.468;5.804;2023-04-03T15:09:30;1.87;;;0.80;;
20334;SDS011;10325;51.468;5.804;2023-04-03T15:11:59;2.67;;;0.90;;
20334;SDS011;10325;51.468;5.804;2023-04-03T15:14:30;1.10;;;0.80;;
20334;SDS011;10325;51.468;5.804;2023-04-03T15:17:04;1.27;;;0.60;;
20334;SDS011;10325;51.468;5.804;2023-04-03T15:19:38;1.20;;;0.70;;
20334;SDS011;10325;51.468;5.804;2023-04-03T15:22:15;1.50;;;0.83;;
20334;SDS011;10325;51.468;5.804;2023-04-03T15:24:56;0.90;;;0.57;;
20334;SDS011;10325;51.468;5.804;2023-04-03T15:27:28;1.73;;;0.60;;
20334;SDS011;10325;51.468;5.804;2023-04-03T15:29:58;1.20;;;0.70;;
20334;SDS011;10325;51.468;5.804;2023-04-03T15:32:27;0.60;;;0.60;;
20334;SDS011;10325;51.468;5.804;2023-04-03T15:35:00;1.10;;;0.60;;
20334;SDS011;10325;51.468;5.804;2023-04-03T15:37:30;1.20;;;0.57;;
20334;SDS011;10325;51.468;5.804;2023-04-03T15:39:59;1.13;;;0.60;;
20334;SDS011;10325;51.468;5.804;2023-04-03T15:42:31;0.80;;;0.60;;
20334;SDS011;10325;51.468;5.804;2023-04-03T15:45:04;1.47;;;0.77;;
20334;SDS011;10325;51.468;5.804;2023-04-03T15:47:37;1.67;;;1.07;;
20334;SDS011;10325;51.468;5.804;2023-04-03T15:50:07;1.03;;;0.63;;
20334;SDS011;10325;51.468;5.804;2023-04-03T15:52:39;0.70;;;0.50;;
20334;SDS011;10325;51.468;5.804;2023-04-03T15:55:09;4.40;;;0.93;;
20334;SDS011;10325;51.468;5.804;2023-04-03T15:57:41;1.33;;;0.60;;
20334;SDS011;10325;51.468;5.804;2023-04-03T16:00:11;1.10;;;0.77;;
20334;SDS011;10325;51.468;5.804;2023-04-03T16:02:46;1.20;;;0.80;;
20334;SDS011;10325;51.468;5.804;2023-04-03T16:05:19;0.80;;;0.60;;
20334;SDS011;10325;51.468;5.804;2023-04-03T16:07:49;1.13;;;0.70;;
20334;SDS011;10325;51.468;5.804;2023-04-03T16:10:21;1.40;;;0.80;;
20334;SDS011;10325;51.468;5.804;2023-04-03T16:12:50;1.80;;;0.67;;
20334;SDS011;10325;51.468;5.804;2023-04-03T16:15:24;0.60;;;0.60;;
20334;SDS011;10325;51.468;5.804;2023-04-03T16:17:54;0.60;;;0.53;;
20334;SDS011;10325;51.468;5.804;2023-04-03T16:20:24;1.17;;;0.70;;
20334;SDS011;10325;51.468;5.804;2023-04-03T16:22:56;1.10;;;0.70;;
20334;SDS011;10325;51.468;5.804;2023-04-03T16:25:29;1.00;;;0.70;;
20334;SDS011;10325;51.468;5.804;2023-04-03T16:28:01;1.83;;;0.80;;
20334;SDS011;10325;51.468;5.804;2023-04-03T16:30:31;1.40;;;0.80;;
20334;SDS011;10325;51.468;5.804;2023-04-03T16:33:00;1.47;;;0.87;;
20334;SDS011;10325;51.468;5.804;2023-04-03T16:35:33;0.93;;;0.70;;
20334;SDS011;10325;51.468;5.804;2023-04-03T16:38:05;0.70;;;0.53;;
20334;SDS011;10325;51.468;5.804;2023-04-03T16:40:41;0.70;;;0.70;;
20334;SDS011;10325;51.468;5.804;2023-04-03T16:43:12;0.80;;;0.63;;
20334;SDS011;10325;51.468;5.804;2023-04-03T16:45:42;1.70;;;0.70;;
20334;SDS011;10325;51.468;5.804;2023-04-03T16:48:12;1.13;;;0.80;;
20334;SDS011;10325;51.468;5.804;2023-04-03T16:50:40;1.10;;;0.60;;
20334;SDS011;10325;51.468;5.804;2023-04-03T16:53:24;0.83;;;0.50;;
20334;SDS011;10325;51.468;5.804;2023-04-03T16:55:56;1.53;;;0.70;;